createdAt,value
2017-05-15T03:01:04.024Z,1026.47
2017-05-15T03:01:29.622Z,1026.48
2017-05-15T03:01:55.205Z,1026.47
2017-05-15T03:02:20.764Z,1026.44
2017-05-15T03:02:46.442Z,1026.45
2017-05-15T03:03:12.040Z,1026.44
2017-05-15T03:03:37.592Z,1026.5
2017-05-15T03:04:03.138Z,1026.48
2017-05-15T03:04:28.832Z,1026.47
2017-05-15T03:04:54.392Z,1026.49
2017-05-15T03:05:19.953Z,1026.47
2017-05-15T03:05:45.505Z,1026.47
2017-05-15T03:06:11.053Z,1026.46
2017-05-15T03:06:36.621Z,1026.5
2017-05-15T03:07:02.195Z,1026.48
2017-05-15T03:07:27.754Z,1026.48
2017-05-15T03:07:53.311Z,1026.5
2017-05-15T03:08:18.891Z,1026.5
2017-05-15T03:08:44.455Z,1026.52
2017-05-15T03:09:10.010Z,1026.5
2017-05-15T03:09:35.563Z,1026.52
2017-05-15T03:10:01.156Z,1026.48
2017-05-15T03:10:26.804Z,1026.54
2017-05-15T03:10:52.372Z,1026.54
2017-05-15T03:11:17.998Z,1026.54
2017-05-15T03:11:43.595Z,1026.53
2017-05-15T03:12:09.133Z,1026.52
2017-05-15T03:12:34.682Z,1026.52
2017-05-15T03:13:00.223Z,1026.54
2017-05-15T03:13:25.801Z,1026.52
2017-05-15T03:13:51.332Z,1026.53
2017-05-15T03:14:16.902Z,1026.54
2017-05-15T03:14:42.449Z,1026.53
2017-05-15T03:15:07.997Z,1026.5
2017-05-15T03:15:33.544Z,1026.53
2017-05-15T03:15:59.153Z,1026.58
2017-05-15T03:16:24.748Z,1026.55
2017-05-15T03:16:50.288Z,1026.58
2017-05-15T03:17:15.841Z,1026.55
2017-05-15T03:17:41.400Z,1026.57
2017-05-15T03:18:07.030Z,1026.57
2017-05-15T03:18:32.578Z,1026.57
2017-05-15T03:18:58.141Z,1026.55
2017-05-15T03:19:23.681Z,1026.55
2017-05-15T03:19:49.254Z,1026.55
2017-05-15T03:20:14.883Z,1026.54
2017-05-15T03:20:40.420Z,1026.57
2017-05-15T03:21:06.031Z,1026.57
2017-05-15T03:21:31.583Z,1026.61
2017-05-15T03:21:57.150Z,1026.63
2017-05-15T03:22:22.693Z,1026.61
2017-05-15T03:22:48.251Z,1026.56
2017-05-15T03:23:13.800Z,1026.63
2017-05-15T03:23:39.394Z,1026.59
2017-05-15T03:24:04.949Z,1026.54
2017-05-15T03:24:30.523Z,1026.61
2017-05-15T03:24:56.116Z,1026.57
2017-05-15T03:25:21.740Z,1026.59
2017-05-15T03:25:47.299Z,1026.59
2017-05-15T03:26:12.883Z,1026.56
2017-05-15T03:26:38.434Z,1026.62
2017-05-15T03:27:04.024Z,1026.62
2017-05-15T03:27:29.714Z,1026.6
2017-05-15T03:27:55.267Z,1026.62
2017-05-15T03:28:20.833Z,1026.62
2017-05-15T03:28:46.436Z,1026.64
2017-05-15T03:29:11.954Z,1026.64
2017-05-15T03:29:37.515Z,1026.64
2017-05-15T03:30:03.084Z,1026.66
2017-05-15T03:30:28.651Z,1026.67
2017-05-15T03:30:54.227Z,1026.64
2017-05-15T03:31:19.795Z,1026.65
2017-05-15T03:31:45.360Z,1026.64
2017-05-15T03:32:10.919Z,1026.66
2017-05-15T03:32:36.495Z,1026.65
2017-05-15T03:33:02.057Z,1026.65
2017-05-15T03:33:27.620Z,1026.68
2017-05-15T03:33:53.215Z,1026.66
2017-05-15T03:34:18.783Z,1026.68
2017-05-15T03:34:44.395Z,1026.69
2017-05-15T03:35:09.987Z,1026.71
2017-05-15T03:35:35.551Z,1026.72
2017-05-15T03:36:01.110Z,1026.7
2017-05-15T03:36:26.696Z,1026.72
2017-05-15T03:36:52.256Z,1026.72
2017-05-15T03:37:17.827Z,1026.72
2017-05-15T03:37:43.382Z,1026.73
2017-05-15T03:38:08.971Z,1026.69
2017-05-15T03:38:34.557Z,1026.71
2017-05-15T03:39:00.114Z,1026.7
2017-05-15T03:39:25.683Z,1026.72
2017-05-15T03:39:51.244Z,1026.68
2017-05-15T03:40:16.817Z,1026.72
2017-05-15T03:40:42.384Z,1026.72
2017-05-15T03:41:08.175Z,1026.74
2017-05-15T03:41:33.761Z,1026.74
2017-05-15T03:41:59.334Z,1026.73
2017-05-15T03:42:24.903Z,1026.74
2017-05-15T03:42:50.461Z,1026.74
2017-05-15T03:43:16.053Z,1026.75
2017-05-15T03:43:41.633Z,1026.79
2017-05-15T03:44:07.196Z,1026.8
2017-05-15T03:44:32.752Z,1026.78
2017-05-15T03:44:58.327Z,1026.77
2017-05-15T03:45:23.887Z,1026.8
2017-05-15T03:45:49.453Z,1026.81
2017-05-15T03:46:15.157Z,1026.77
2017-05-15T03:46:40.784Z,1026.82
2017-05-15T03:47:06.350Z,1026.86
2017-05-15T03:47:31.925Z,1026.82
2017-05-15T03:47:57.599Z,1026.81
2017-05-15T03:48:23.165Z,1026.81
2017-05-15T03:48:48.781Z,1026.84
2017-05-15T03:49:14.349Z,1026.85
2017-05-15T03:49:39.901Z,1026.85
2017-05-15T03:50:05.452Z,1026.85
2017-05-15T03:50:31.008Z,1026.82
2017-05-15T03:50:56.603Z,1026.9
2017-05-15T03:51:22.156Z,1026.89
2017-05-15T03:51:47.709Z,1026.84
2017-05-15T03:52:13.256Z,1026.85
2017-05-15T03:52:38.865Z,1026.87
2017-05-15T03:53:04.553Z,1026.83
2017-05-15T03:53:30.114Z,1026.87
2017-05-15T03:53:55.676Z,1026.88
2017-05-15T03:54:21.252Z,1026.81
2017-05-15T03:54:46.848Z,1026.85
2017-05-15T03:55:12.428Z,1026.89
2017-05-15T03:55:37.985Z,1026.88
2017-05-15T03:56:03.584Z,1026.89
2017-05-15T03:56:29.160Z,1026.91
2017-05-15T03:56:54.740Z,1026.9
2017-05-15T03:57:20.319Z,1026.92
2017-05-15T03:57:45.891Z,1026.97
2017-05-15T03:58:11.461Z,1026.96
2017-05-15T03:58:37.034Z,1026.96
2017-05-15T03:59:02.588Z,1026.94
2017-05-15T03:59:28.148Z,1026.97
2017-05-15T03:59:53.736Z,1026.99
2017-05-15T04:00:19.307Z,1026.97
2017-05-15T04:00:44.910Z,1026.98
2017-05-15T04:01:10.463Z,1026.98
2017-05-15T04:01:36.029Z,1026.97
2017-05-15T04:02:01.672Z,1026.97
2017-05-15T04:02:27.248Z,1026.98
2017-05-15T04:02:52.820Z,1026.99
2017-05-15T04:03:18.389Z,1026.98
2017-05-15T04:03:43.972Z,1026.98
2017-05-15T04:04:09.542Z,1026.95
2017-05-15T04:04:35.096Z,1026.95
2017-05-15T04:05:00.643Z,1026.96
2017-05-15T04:05:26.235Z,1026.99
2017-05-15T04:05:51.796Z,1027.04
2017-05-15T04:06:17.376Z,1027.04
2017-05-15T04:06:42.965Z,1027.02
2017-05-15T04:07:08.552Z,1027.09
2017-05-15T04:07:34.182Z,1027.05
2017-05-15T04:07:59.764Z,1027.06
2017-05-15T04:08:25.352Z,1027.07
2017-05-15T04:08:50.935Z,1027.08
2017-05-15T04:09:16.504Z,1027.08
2017-05-15T04:09:42.064Z,1027.09
2017-05-15T04:10:07.635Z,1027.04
2017-05-15T04:10:33.238Z,1027.06
2017-05-15T04:10:58.862Z,1027.03
2017-05-15T04:11:24.415Z,1027.07
2017-05-15T04:11:49.984Z,1027
2017-05-15T04:12:15.528Z,1027
2017-05-15T04:12:41.072Z,1027.05
2017-05-15T04:13:06.634Z,1027.06
2017-05-15T04:13:32.195Z,1027.03
2017-05-15T04:13:57.759Z,1027.04
2017-05-15T04:14:23.333Z,1027.05
2017-05-15T04:14:48.905Z,1027.05
2017-05-15T04:15:14.465Z,1027.08
2017-05-15T04:15:40.015Z,1027.11
2017-05-15T04:16:05.584Z,1027.05
2017-05-15T04:16:31.141Z,1027.11
2017-05-15T04:16:56.738Z,1027.11
2017-05-15T04:17:22.306Z,1027.08
2017-05-15T04:17:47.928Z,1027.12
2017-05-15T04:18:13.562Z,1027.12
2017-05-15T04:18:39.134Z,1027.16
2017-05-15T04:19:04.701Z,1027.13
2017-05-15T04:19:30.340Z,1027.13
2017-05-15T04:19:55.911Z,1027.11
2017-05-15T04:20:21.479Z,1027.12
2017-05-15T04:20:47.165Z,1027.1
2017-05-15T04:21:12.750Z,1027.09
2017-05-15T04:21:38.326Z,1027.11
2017-05-15T04:22:03.910Z,1027.17
2017-05-15T04:22:29.455Z,1027.13
2017-05-15T04:22:55.024Z,1027.14
2017-05-15T04:23:20.592Z,1027.13
2017-05-15T04:23:46.178Z,1027.14
2017-05-15T04:24:11.739Z,1027.17
2017-05-15T04:24:37.336Z,1027.17
2017-05-15T04:25:02.915Z,1027.16
2017-05-15T04:25:28.690Z,1027.15
2017-05-15T04:25:54.364Z,1027.17
2017-05-15T04:26:19.933Z,1027.18
2017-05-15T04:26:45.580Z,1027.15
2017-05-15T04:27:11.153Z,1027.1
2017-05-15T04:27:36.718Z,1027.15
2017-05-15T04:28:02.275Z,1027.17
2017-05-15T04:28:27.854Z,1027.17
2017-05-15T04:28:53.422Z,1027.18
2017-05-15T04:29:18.987Z,1027.19
2017-05-15T04:29:44.545Z,1027.22
2017-05-15T04:30:10.185Z,1027.19
2017-05-15T04:30:35.741Z,1027.23
2017-05-15T04:31:01.293Z,1027.2
2017-05-15T04:31:26.980Z,1027.23
2017-05-15T04:31:52.670Z,1027.19
2017-05-15T04:32:18.614Z,1027.22
2017-05-15T04:32:44.171Z,1027.18
2017-05-15T04:33:09.743Z,1027.22
2017-05-15T04:33:35.327Z,1027.19
2017-05-15T04:34:00.882Z,1027.21
2017-05-15T04:34:26.445Z,1027.25
2017-05-15T04:34:51.995Z,1027.23
2017-05-15T04:35:17.616Z,1027.22
2017-05-15T04:35:43.178Z,1027.26
2017-05-15T04:36:08.744Z,1027.24
2017-05-15T04:36:34.450Z,1027.24
2017-05-15T04:37:00.060Z,1027.26
2017-05-15T04:37:25.620Z,1027.23
2017-05-15T04:37:51.187Z,1027.21
2017-05-15T04:38:16.825Z,1027.21
2017-05-15T04:38:42.399Z,1027.24
2017-05-15T04:39:07.967Z,1027.24
2017-05-15T04:39:33.629Z,1027.24
2017-05-15T04:39:59.191Z,1027.23
2017-05-15T04:40:24.744Z,1027.23
2017-05-15T04:40:50.295Z,1027.28
2017-05-15T04:41:15.855Z,1027.27
2017-05-15T04:41:41.444Z,1027.22
2017-05-15T04:42:06.998Z,1027.23
2017-05-15T04:42:32.557Z,1027.29
2017-05-15T04:42:58.119Z,1027.3
2017-05-15T04:43:23.695Z,1027.27
2017-05-15T04:43:49.262Z,1027.29
2017-05-15T04:44:14.834Z,1027.29
2017-05-15T04:44:40.390Z,1027.27
2017-05-15T04:45:05.951Z,1027.27
2017-05-15T04:45:31.516Z,1027.28
2017-05-15T04:45:57.091Z,1027.29
2017-05-15T04:46:22.654Z,1027.3
2017-05-15T04:46:48.256Z,1027.34
2017-05-15T04:49:28.556Z,1027.39
2017-05-15T04:49:54.114Z,1027.33
2017-05-15T04:50:19.771Z,1027.36
2017-05-15T04:50:45.338Z,1027.33
2017-05-15T04:51:10.904Z,1027.38
2017-05-15T04:51:36.603Z,1027.32
2017-05-15T04:52:02.181Z,1027.36
2017-05-15T04:52:27.762Z,1027.34
2017-05-15T04:52:53.368Z,1027.36
2017-05-15T04:53:18.976Z,1027.4
2017-05-15T04:53:44.581Z,1027.37
2017-05-15T04:54:10.137Z,1027.37
2017-05-15T04:54:35.761Z,1027.4
2017-05-15T04:55:54.631Z,1027.36
2017-05-15T04:56:23.291Z,1027.44
2017-05-15T04:58:27.344Z,1027.44
2017-05-15T04:58:53.044Z,1027.46
2017-05-15T04:59:18.633Z,1027.39
2017-05-15T04:59:44.264Z,1027.48
2017-05-15T05:00:09.820Z,1027.45
2017-05-15T05:00:36.015Z,1027.46
2017-05-15T05:01:01.564Z,1027.45
2017-05-15T05:01:27.141Z,1027.47
2017-05-15T05:01:52.704Z,1027.46
2017-05-15T05:02:18.282Z,1027.48
2017-05-15T05:02:43.944Z,1027.53
2017-05-15T05:03:09.547Z,1027.51
2017-05-15T05:03:35.092Z,1027.51
2017-05-15T05:04:00.679Z,1027.56
2017-05-15T05:04:26.239Z,1027.52
2017-05-15T05:04:51.805Z,1027.55
2017-05-15T05:05:17.390Z,1027.56
2017-05-15T05:05:42.967Z,1027.53
2017-05-15T05:06:08.535Z,1027.48
2017-05-15T05:06:34.109Z,1027.54
2017-05-15T05:06:59.684Z,1027.55
2017-05-15T05:07:25.245Z,1027.54
2017-05-15T05:07:50.804Z,1027.54
2017-05-15T05:08:16.380Z,1027.54
2017-05-15T05:08:41.950Z,1027.53
2017-05-15T05:09:07.515Z,1027.56
2017-05-15T05:09:33.074Z,1027.53
2017-05-15T05:09:58.638Z,1027.6
2017-05-15T05:10:24.193Z,1027.6
2017-05-15T05:10:49.740Z,1027.65
2017-05-15T05:11:15.475Z,1027.62
2017-05-15T05:11:41.014Z,1027.66
2017-05-15T05:12:06.561Z,1027.64
2017-05-15T05:12:32.135Z,1027.66
2017-05-15T05:13:40.810Z,1027.65
2017-05-15T05:14:06.425Z,1027.66
2017-05-15T05:14:32.021Z,1027.67
2017-05-15T05:14:57.577Z,1027.63
2017-05-15T05:15:23.157Z,1027.68
2017-05-15T05:15:48.834Z,1027.69
2017-05-15T05:16:14.394Z,1027.67
2017-05-15T05:16:39.958Z,1027.7
2017-05-15T05:17:05.645Z,1027.73
2017-05-15T05:17:31.193Z,1027.69
2017-05-15T05:17:56.754Z,1027.72
2017-05-15T05:18:22.401Z,1027.69
2017-05-15T05:18:48.015Z,1027.68
2017-05-15T05:19:13.583Z,1027.71
2017-05-15T05:19:39.208Z,1027.71
2017-05-15T05:20:04.778Z,1027.7
2017-05-15T05:20:30.339Z,1027.7
2017-05-15T05:20:55.970Z,1027.72
2017-05-15T05:21:21.544Z,1027.75
2017-05-15T05:21:47.125Z,1027.73
2017-05-15T05:22:12.690Z,1027.74
2017-05-15T05:22:38.276Z,1027.78
2017-05-15T05:23:03.831Z,1027.77
2017-05-15T05:23:29.394Z,1027.79
2017-05-15T05:23:55.044Z,1027.75
2017-05-15T05:24:20.593Z,1027.77
2017-05-15T05:24:46.161Z,1027.76
2017-05-15T05:25:11.811Z,1027.74
2017-05-15T05:25:37.428Z,1027.78
2017-05-15T05:26:02.996Z,1027.78
2017-05-15T05:26:28.674Z,1027.78
2017-05-15T05:26:54.231Z,1027.76
2017-05-15T05:27:19.799Z,1027.75
2017-05-15T05:27:45.432Z,1027.79
2017-05-15T05:28:10.994Z,1027.8
2017-05-15T05:28:36.565Z,1027.78
2017-05-15T05:29:02.119Z,1027.79
2017-05-15T05:29:27.847Z,1027.79
2017-05-15T05:29:53.407Z,1027.83
2017-05-15T05:30:18.965Z,1027.83
2017-05-15T05:30:44.725Z,1027.83
2017-05-15T05:31:10.322Z,1027.84
2017-05-15T05:31:35.895Z,1027.86
2017-05-15T05:32:01.460Z,1027.87
2017-05-15T05:32:27.028Z,1027.88
2017-05-15T05:32:52.592Z,1027.89
2017-05-15T05:33:18.236Z,1027.9
2017-05-15T05:33:43.857Z,1027.91
2017-05-15T05:34:09.425Z,1027.92
2017-05-15T05:34:34.996Z,1027.92
2017-05-15T05:35:00.574Z,1027.93
2017-05-15T05:35:26.132Z,1027.97
2017-05-15T05:35:51.688Z,1027.99
2017-05-15T05:36:17.245Z,1027.96
2017-05-15T05:36:42.815Z,1027.96
2017-05-15T05:37:08.444Z,1027.97
2017-05-15T05:37:34.030Z,1027.99
2017-05-15T05:37:59.590Z,1027.98
2017-05-15T05:38:25.151Z,1027.98
2017-05-15T05:38:50.714Z,1028
2017-05-15T05:39:16.272Z,1028.01
2017-05-15T05:39:41.842Z,1028.01
2017-05-15T05:40:07.392Z,1028.07
2017-05-15T05:40:32.953Z,1028
2017-05-15T05:40:58.519Z,1028.01
2017-05-15T05:41:24.103Z,1028.04
2017-05-15T05:41:49.664Z,1028.04
2017-05-15T05:42:15.348Z,1028.05
2017-05-15T05:42:40.924Z,1028.04
2017-05-15T05:43:06.504Z,1028.08
2017-05-15T05:43:32.064Z,1028.07
2017-05-15T05:43:57.615Z,1028.1
2017-05-15T05:44:23.171Z,1028.08
2017-05-15T05:44:48.747Z,1028.09
2017-05-15T05:45:14.312Z,1028.11
2017-05-15T05:45:39.881Z,1028.15
2017-05-15T05:46:05.447Z,1028.13
2017-05-15T05:46:30.996Z,1028.11
2017-05-15T05:46:56.553Z,1028.14
2017-05-15T05:47:22.106Z,1028.13
2017-05-15T05:47:47.656Z,1028.17
2017-05-15T05:48:13.210Z,1028.13
2017-05-15T05:48:38.753Z,1028.15
2017-05-15T05:49:04.334Z,1028.14
2017-05-15T05:49:29.879Z,1028.14
2017-05-15T05:49:55.458Z,1028.12
2017-05-15T05:50:21.005Z,1028.13
2017-05-15T05:50:46.570Z,1028.15
2017-05-15T05:51:12.121Z,1028.16
2017-05-15T05:51:37.670Z,1028.19
2017-05-15T05:52:03.235Z,1028.19
2017-05-15T05:52:28.800Z,1028.22
2017-05-15T05:52:54.371Z,1028.28
2017-05-15T05:53:19.955Z,1028.25
2017-05-15T05:53:45.493Z,1028.22
2017-05-15T05:54:11.030Z,1028.23
2017-05-15T05:54:36.580Z,1028.25
2017-05-15T05:55:02.141Z,1028.23
2017-05-15T05:55:27.700Z,1028.23
2017-05-15T05:55:53.256Z,1028.22
2017-05-15T05:56:18.812Z,1028.24
2017-05-15T05:56:44.375Z,1028.25
2017-05-15T05:57:09.943Z,1028.25
2017-05-15T05:57:35.580Z,1028.22
2017-05-15T05:58:01.141Z,1028.23
2017-05-15T05:58:26.707Z,1028.21
2017-05-15T05:58:52.272Z,1028.23
2017-05-15T05:59:18.018Z,1028.23
2017-05-15T05:59:43.566Z,1028.28
2017-05-15T06:00:09.192Z,1028.27
2017-05-15T06:00:34.844Z,1028.23
2017-05-15T06:01:38.315Z,1028.28
2017-05-15T06:02:03.872Z,1028.3
2017-05-15T06:02:29.587Z,1028.31
2017-05-15T06:02:55.142Z,1028.3
2017-05-15T06:03:20.711Z,1028.35
2017-05-15T06:03:46.285Z,1028.32
2017-05-15T06:04:11.843Z,1028.34
2017-05-15T06:04:37.416Z,1028.34
2017-05-15T06:05:03.020Z,1028.32
2017-05-15T06:05:28.580Z,1028.34
2017-05-15T06:06:46.264Z,1028.31
2017-05-15T06:07:11.811Z,1028.34
2017-05-15T06:09:19.081Z,1028.35
2017-05-15T06:09:44.640Z,1028.35
2017-05-15T06:10:10.207Z,1028.36
2017-05-15T06:11:08.284Z,1028.41
2017-05-15T06:11:33.853Z,1028.38
2017-05-15T06:11:59.415Z,1028.39
2017-05-15T06:12:24.964Z,1028.42
2017-05-15T06:12:50.529Z,1028.39
2017-05-15T06:13:16.114Z,1028.42
2017-05-15T06:13:41.671Z,1028.41
2017-05-15T06:14:07.265Z,1028.43
2017-05-15T06:14:32.816Z,1028.43
2017-05-15T06:14:58.368Z,1028.41
2017-05-15T06:15:23.943Z,1028.42
2017-05-15T06:15:49.497Z,1028.38
2017-05-15T06:16:15.045Z,1028.4
2017-05-15T06:16:40.605Z,1028.4
2017-05-15T06:17:06.152Z,1028.4
2017-05-15T06:17:31.723Z,1028.41
2017-05-15T06:17:57.315Z,1028.42
2017-05-15T06:18:22.951Z,1028.39
2017-05-15T06:18:48.511Z,1028.44
2017-05-15T06:19:14.071Z,1028.42
2017-05-15T06:19:39.635Z,1028.43
2017-05-15T06:20:05.187Z,1028.43
2017-05-15T06:20:30.739Z,1028.44
2017-05-15T06:20:56.335Z,1028.45
2017-05-15T06:21:21.961Z,1028.47
2017-05-15T06:21:47.522Z,1028.45
2017-05-15T06:22:13.075Z,1028.45
2017-05-15T06:22:38.645Z,1028.45
2017-05-15T06:23:04.223Z,1028.46
2017-05-15T06:23:29.787Z,1028.51
2017-05-15T06:23:55.364Z,1028.49
2017-05-15T06:24:20.925Z,1028.48
2017-05-15T06:24:46.499Z,1028.5
2017-05-15T06:25:12.134Z,1028.51
2017-05-15T06:25:37.701Z,1028.5
2017-05-15T06:26:03.310Z,1028.52
2017-05-15T06:26:28.900Z,1028.51
2017-05-15T06:26:54.459Z,1028.53
2017-05-15T06:27:20.016Z,1028.51
2017-05-15T06:27:45.602Z,1028.49
2017-05-15T06:28:11.161Z,1028.5
2017-05-15T06:28:36.727Z,1028.52
2017-05-15T06:29:02.278Z,1028.55
2017-05-15T06:29:27.844Z,1028.53
2017-05-15T06:29:53.404Z,1028.54
2017-05-15T06:30:18.965Z,1028.57
2017-05-15T06:30:44.526Z,1028.56
2017-05-15T06:31:10.084Z,1028.54
2017-05-15T06:31:35.645Z,1028.57
2017-05-15T06:32:01.231Z,1028.53
2017-05-15T06:32:26.780Z,1028.59
2017-05-15T06:32:52.357Z,1028.57
2017-05-15T06:33:17.915Z,1028.54
2017-05-15T06:33:43.478Z,1028.57
2017-05-15T06:34:09.034Z,1028.56
2017-05-15T06:34:34.615Z,1028.51
2017-05-15T06:35:00.173Z,1028.5
2017-05-15T06:35:25.748Z,1028.6
2017-05-15T06:35:51.329Z,1028.54
2017-05-15T06:36:17.052Z,1028.56
2017-05-15T06:36:42.626Z,1028.5
2017-05-15T06:37:08.235Z,1028.53
2017-05-15T06:37:33.794Z,1028.56
2017-05-15T06:37:59.354Z,1028.55
2017-05-15T06:38:24.910Z,1028.6
2017-05-15T06:38:50.576Z,1028.58
2017-05-15T06:39:16.186Z,1028.6
2017-05-15T06:39:41.760Z,1028.61
2017-05-15T06:40:07.342Z,1028.65
2017-05-15T06:40:32.913Z,1028.65
2017-05-15T06:40:58.466Z,1028.63
2017-05-15T06:41:24.026Z,1028.69
2017-05-15T06:41:49.594Z,1028.66
2017-05-15T06:42:15.207Z,1028.67
2017-05-15T06:42:40.847Z,1028.67
2017-05-15T06:43:06.451Z,1028.66
2017-05-15T06:43:32.022Z,1028.72
2017-05-15T06:43:57.591Z,1028.69
2017-05-15T06:44:23.206Z,1028.68
2017-05-15T06:44:48.773Z,1028.7
2017-05-15T06:45:14.340Z,1028.71
2017-05-15T06:45:39.962Z,1028.68
2017-05-15T06:46:05.533Z,1028.68
2017-05-15T06:46:31.139Z,1028.72
2017-05-15T06:46:56.842Z,1028.69
2017-05-15T06:47:22.425Z,1028.73
2017-05-15T06:47:47.977Z,1028.75
2017-05-15T06:48:13.572Z,1028.72
2017-05-15T06:48:39.261Z,1028.73
2017-05-15T06:49:04.833Z,1028.76
2017-05-15T06:49:30.409Z,1028.72
2017-05-15T06:49:56.038Z,1028.74
2017-05-15T06:50:21.592Z,1028.75
2017-05-15T06:50:47.287Z,1028.75
2017-05-15T06:51:12.883Z,1028.76
2017-05-15T06:51:38.443Z,1028.76
2017-05-15T06:52:04.032Z,1028.77
2017-05-15T06:52:29.580Z,1028.74
2017-05-15T06:52:55.131Z,1028.74
2017-05-15T06:53:20.692Z,1028.75
2017-05-15T06:53:46.253Z,1028.76
2017-05-15T06:54:11.801Z,1028.75
2017-05-15T06:54:37.361Z,1028.72
2017-05-15T06:55:03.018Z,1028.72
2017-05-15T06:55:28.605Z,1028.74
2017-05-15T06:55:54.151Z,1028.76
2017-05-15T06:56:19.751Z,1028.73
2017-05-15T06:56:45.298Z,1028.74
2017-05-15T06:57:10.868Z,1028.72
2017-05-15T06:57:36.435Z,1028.74
2017-05-15T06:58:01.995Z,1028.74
2017-05-15T06:58:27.608Z,1028.71
2017-05-15T06:58:53.164Z,1028.73
2017-05-15T06:59:18.746Z,1028.72
2017-05-15T06:59:44.311Z,1028.72
2017-05-15T07:00:09.863Z,1028.73
2017-05-15T07:00:35.497Z,1028.76
2017-05-15T07:01:01.060Z,1028.72
2017-05-15T07:01:26.663Z,1028.74
2017-05-15T07:01:52.252Z,1028.73
2017-05-15T07:02:17.810Z,1028.72
2017-05-15T07:02:43.374Z,1028.71
2017-05-15T07:03:08.929Z,1028.72
2017-05-15T07:03:34.477Z,1028.75
2017-05-15T07:04:00.033Z,1028.72
2017-05-15T07:04:25.595Z,1028.71
2017-05-15T07:04:51.145Z,1028.73
2017-05-15T07:05:16.706Z,1028.7
2017-05-15T07:05:42.291Z,1028.76
2017-05-15T07:06:07.910Z,1028.71
2017-05-15T07:06:33.513Z,1028.76
2017-05-15T07:06:59.055Z,1028.76
2017-05-15T07:07:24.652Z,1028.72
2017-05-15T07:07:50.218Z,1028.7
2017-05-15T07:08:15.776Z,1028.74
2017-05-15T07:08:41.352Z,1028.8
2017-05-15T07:09:06.973Z,1028.76
2017-05-15T07:09:32.554Z,1028.79
2017-05-15T07:09:58.125Z,1028.77
2017-05-15T07:10:23.729Z,1028.76
2017-05-15T07:10:49.264Z,1028.8
2017-05-15T07:11:14.826Z,1028.81
2017-05-15T07:11:40.391Z,1028.8
2017-05-15T07:12:05.953Z,1028.84
2017-05-15T07:12:31.532Z,1028.82
2017-05-15T07:12:57.119Z,1028.82
2017-05-15T07:13:22.745Z,1028.8
2017-05-15T07:13:48.306Z,1028.87
2017-05-15T07:14:13.871Z,1028.84
2017-05-15T07:14:39.436Z,1028.84
2017-05-15T07:15:05.030Z,1028.87
2017-05-15T07:15:30.588Z,1028.84
2017-05-15T07:15:56.161Z,1028.82
2017-05-15T07:16:21.754Z,1028.85
2017-05-15T07:16:47.333Z,1028.86
2017-05-15T07:17:12.894Z,1028.83
2017-05-15T07:17:38.469Z,1028.89
2017-05-15T07:18:04.113Z,1028.86
2017-05-15T07:18:29.669Z,1028.86
2017-05-15T07:18:55.214Z,1028.93
2017-05-15T07:19:20.783Z,1028.87
2017-05-15T07:19:46.342Z,1028.93
2017-05-15T07:20:11.925Z,1028.98
2017-05-15T07:20:37.491Z,1028.9
2017-05-15T07:21:03.050Z,1028.95
2017-05-15T07:21:28.612Z,1028.94
2017-05-15T07:21:54.201Z,1028.95
2017-05-15T07:22:19.842Z,1028.99
2017-05-15T07:22:45.396Z,1028.98
2017-05-15T07:23:10.953Z,1028.96
2017-05-15T07:23:36.591Z,1028.97
2017-05-15T07:24:02.153Z,1028.98
2017-05-15T07:24:27.714Z,1028.99
2017-05-15T07:24:53.276Z,1028.98
2017-05-15T07:25:18.911Z,1028.99
2017-05-15T07:25:44.484Z,1029.01
2017-05-15T07:26:10.051Z,1029.03
2017-05-15T07:26:35.611Z,1029.05
2017-05-15T07:27:01.169Z,1029.01
2017-05-15T07:27:26.759Z,1029.04
2017-05-15T07:27:52.316Z,1029.02
2017-05-15T07:28:17.905Z,1029.04
2017-05-15T07:28:43.481Z,1029.06
2017-05-15T07:29:09.046Z,1029.03
2017-05-15T07:29:34.625Z,1029.04
2017-05-15T07:30:00.204Z,1029.06
2017-05-15T07:30:25.754Z,1029.06
2017-05-15T07:30:51.320Z,1029.08
2017-05-15T07:31:16.885Z,1029.04
2017-05-15T07:31:42.442Z,1029.06
2017-05-15T07:32:08.004Z,1029.04
2017-05-15T07:32:33.559Z,1029.09
2017-05-15T07:32:59.120Z,1029.09
2017-05-15T07:33:24.782Z,1029.12
2017-05-15T07:33:50.341Z,1029.1
2017-05-15T07:34:15.984Z,1029.15
2017-05-15T07:34:41.506Z,1029.14
2017-05-15T07:35:07.207Z,1029.14
2017-05-15T07:35:32.774Z,1029.12
2017-05-15T07:35:58.357Z,1029.14
2017-05-15T07:36:23.922Z,1029.11
2017-05-15T07:36:49.494Z,1029.14
2017-05-15T07:37:15.056Z,1029.13
2017-05-15T07:37:40.611Z,1029.12
2017-05-15T07:38:06.171Z,1029.14
2017-05-15T07:38:31.743Z,1029.15
2017-05-15T07:38:57.330Z,1029.13
2017-05-15T07:39:22.901Z,1029.13
2017-05-15T07:39:48.458Z,1029.17
2017-05-15T07:40:14.064Z,1029.12
2017-05-15T07:40:39.647Z,1029.12
2017-05-15T07:41:05.200Z,1029.1
2017-05-15T07:41:30.945Z,1029.13
2017-05-15T07:41:56.525Z,1029.12
2017-05-15T07:42:22.080Z,1029.11
2017-05-15T07:42:47.651Z,1029.09
2017-05-15T07:43:13.204Z,1029.14
2017-05-15T07:43:38.740Z,1029.15
2017-05-15T07:44:04.295Z,1029.11
2017-05-15T07:44:29.850Z,1029.15
2017-05-15T07:44:55.411Z,1029.1
2017-05-15T07:45:21.070Z,1029.13
2017-05-15T07:45:46.630Z,1029.11
2017-05-15T07:46:12.214Z,1029.15
2017-05-15T07:46:37.964Z,1029.13
2017-05-15T07:47:03.525Z,1029.15
2017-05-15T07:47:29.084Z,1029.13
2017-05-15T07:47:54.739Z,1029.14
2017-05-15T07:48:20.295Z,1029.16
2017-05-15T07:48:45.911Z,1029.14
2017-05-15T07:49:11.474Z,1029.14
2017-05-15T07:49:37.055Z,1029.16
2017-05-15T07:50:02.632Z,1029.14
2017-05-15T07:50:28.184Z,1029.14
2017-05-15T07:50:53.780Z,1029.16
2017-05-15T07:51:19.359Z,1029.15
2017-05-15T07:51:44.944Z,1029.17
2017-05-15T07:52:10.500Z,1029.15
2017-05-15T07:52:36.071Z,1029.18
2017-05-15T07:53:01.643Z,1029.18
2017-05-15T07:53:27.237Z,1029.19
2017-05-15T07:53:52.775Z,1029.19
2017-05-15T07:54:18.338Z,1029.18
2017-05-15T07:54:43.872Z,1029.24
2017-05-15T07:55:09.457Z,1029.21
2017-05-15T07:55:35.110Z,1029.25
2017-05-15T07:56:00.681Z,1029.26
2017-05-15T07:56:26.233Z,1029.25
2017-05-15T07:56:51.809Z,1029.28
2017-05-15T07:57:17.372Z,1029.24
2017-05-15T07:57:42.944Z,1029.27
2017-05-15T07:58:08.538Z,1029.22
2017-05-15T07:58:34.125Z,1029.22
2017-05-15T07:58:59.683Z,1029.18
2017-05-15T07:59:25.242Z,1029.2
2017-05-15T07:59:50.810Z,1029.18
2017-05-15T08:00:16.374Z,1029.16
2017-05-15T08:00:42.049Z,1029.19
2017-05-15T08:01:07.713Z,1029.24
2017-05-15T08:01:33.304Z,1029.21
2017-05-15T08:01:58.883Z,1029.19
2017-05-15T08:02:24.455Z,1029.22
2017-05-15T08:02:50.045Z,1029.23
2017-05-15T08:03:53.527Z,1029.21
2017-05-15T08:04:19.113Z,1029.24
2017-05-15T08:04:44.663Z,1029.21
2017-05-15T08:05:10.257Z,1029.25
2017-05-15T08:05:35.802Z,1029.24
2017-05-15T08:06:01.354Z,1029.25
2017-05-15T08:06:26.887Z,1029.25
2017-05-15T08:06:52.424Z,1029.27
2017-05-15T08:07:18.014Z,1029.24
2017-05-15T08:07:43.570Z,1029.26
2017-05-15T08:08:09.133Z,1029.21
2017-05-15T08:08:34.690Z,1029.27
2017-05-15T08:09:00.378Z,1029.27
2017-05-15T08:09:25.964Z,1029.23
2017-05-15T08:09:51.587Z,1029.26
2017-05-15T08:10:49.953Z,1029.23
2017-05-15T08:11:15.507Z,1029.24
2017-05-15T08:11:41.065Z,1029.22
2017-05-15T08:12:06.762Z,1029.23
2017-05-15T08:12:32.324Z,1029.25
2017-05-15T08:12:57.886Z,1029.24
2017-05-15T08:13:23.510Z,1029.23
2017-05-15T08:13:49.086Z,1029.26
2017-05-15T08:14:14.654Z,1029.24
2017-05-15T08:14:40.231Z,1029.27
2017-05-15T08:15:05.791Z,1029.25
2017-05-15T08:15:31.507Z,1029.26
2017-05-15T08:15:57.079Z,1029.22
2017-05-15T08:16:22.642Z,1029.22
2017-05-15T08:16:48.207Z,1029.25
2017-05-15T08:17:13.964Z,1029.26
2017-05-15T08:17:39.541Z,1029.27
2017-05-15T08:18:05.101Z,1029.22
2017-05-15T08:18:30.670Z,1029.23
2017-05-15T08:18:56.229Z,1029.31
2017-05-15T08:19:21.788Z,1029.29
2017-05-15T08:19:47.351Z,1029.25
2017-05-15T08:20:12.892Z,1029.27
2017-05-15T08:20:38.472Z,1029.27
2017-05-15T08:21:04.124Z,1029.25
2017-05-15T08:21:29.668Z,1029.33